createdAt,value
2022-12-25T00:00:21.092Z,8.68
2022-12-25T00:02:49.583Z,9.32
2022-12-25T00:05:17.463Z,7.38
2022-12-25T00:07:47.450Z,7.57
2022-12-25T00:10:15.140Z,10.43
2022-12-25T00:12:45.356Z,8.40
2022-12-25T00:17:40.370Z,7.13
2022-12-25T00:20:11.615Z,8.85
2022-12-25T00:22:39.147Z,8.52
2022-12-25T00:25:07.227Z,5.72
2022-12-25T00:27:35.137Z,8.23
2022-12-25T00:30:02.954Z,7.75
2022-12-25T00:32:30.703Z,6.13
2022-12-25T00:34:58.471Z,8.43
2022-12-25T00:37:26.215Z,8.55
2022-12-25T00:39:53.886Z,7.82
2022-12-25T00:42:25.012Z,8.77
2022-12-25T00:44:55.055Z,7.00
2022-12-25T00:47:25.694Z,6.10
2022-12-25T00:49:54.329Z,7.60
2022-12-25T00:52:24.718Z,6.75
2022-12-25T00:54:52.421Z,6.70
2022-12-25T00:57:20.033Z,5.30
2022-12-25T00:59:47.758Z,6.07
2022-12-25T01:02:24.363Z,5.97
2022-12-25T01:04:56.327Z,6.07
2022-12-25T01:07:26.367Z,7.07
2022-12-25T01:10:12.778Z,5.68
2022-12-25T01:12:43.071Z,7.10
2022-12-25T01:15:11.663Z,5.00
2022-12-25T01:17:39.384Z,9.20
2022-12-25T01:20:07.491Z,7.20
2022-12-25T01:22:34.832Z,7.57
2022-12-25T01:25:02.801Z,7.15
2022-12-25T01:27:30.815Z,7.18
2022-12-25T01:29:58.539Z,8.85
2022-12-25T01:32:26.257Z,6.15
2022-12-25T01:34:57.299Z,6.30
2022-12-25T01:37:25.937Z,3.92
2022-12-25T01:39:53.569Z,5.75
2022-12-25T01:42:24.832Z,6.28
2022-12-25T01:44:55.476Z,6.72
2022-12-25T01:47:25.606Z,6.80
2022-12-25T01:49:53.627Z,6.50
2022-12-25T01:52:25.215Z,7.03
2022-12-25T01:55:04.150Z,7.07
2022-12-25T01:57:33.745Z,6.53
2022-12-25T02:00:02.170Z,5.63
2022-12-25T02:02:30.463Z,7.38
2022-12-25T02:05:06.584Z,7.88
2022-12-25T02:07:35.868Z,7.55
2022-12-25T02:10:06.127Z,7.30
2022-12-25T02:15:12.086Z,7.32
2022-12-25T02:17:42.519Z,6.22
2022-12-25T02:20:58.823Z,7.05
2022-12-25T02:23:55.418Z,7.30
2022-12-25T02:26:32.351Z,5.20
2022-12-25T02:29:16.001Z,4.78
2022-12-25T02:31:59.730Z,3.72
2022-12-25T02:34:43.151Z,5.22
2022-12-25T02:37:28.252Z,5.65
2022-12-25T02:40:11.032Z,6.78
2022-12-25T02:43:07.305Z,7.55
2022-12-25T02:45:58.866Z,9.02
2022-12-25T02:48:51.541Z,6.60
2022-12-25T02:51:40.859Z,8.27
2022-12-25T02:54:31.657Z,8.25
2022-12-25T02:57:21.304Z,5.80
2022-12-25T03:00:08.463Z,6.43
2022-12-25T03:03:01.339Z,7.85
2022-12-25T03:05:50.450Z,6.18
2022-12-25T03:08:24.924Z,5.95
2022-12-25T03:11:27.573Z,7.93
2022-12-25T03:14:17.678Z,6.00
2022-12-25T03:16:53.043Z,9.10
2022-12-25T03:19:41.788Z,5.32
2022-12-25T03:22:41.091Z,6.10
2022-12-25T03:25:27.514Z,6.13
2022-12-25T03:27:57.374Z,7.30
2022-12-25T03:30:53.228Z,5.00
2022-12-25T03:34:17.865Z,6.68
2022-12-25T03:36:48.763Z,6.50
2022-12-25T03:39:52.838Z,6.50
2022-12-25T03:42:47.267Z,5.47
2022-12-25T03:46:09.684Z,5.95
2022-12-25T03:48:59.755Z,6.38
2022-12-25T03:51:51.564Z,7.60
2022-12-25T03:54:43.568Z,6.00
2022-12-25T03:57:29.828Z,5.13
2022-12-25T04:00:15.695Z,5.40
2022-12-25T04:03:01.623Z,4.68
2022-12-25T04:05:47.565Z,5.95
2022-12-25T04:08:33.598Z,6.72
2022-12-25T04:11:19.405Z,6.05
2022-12-25T04:14:05.129Z,8.18
2022-12-25T04:16:53.338Z,5.82
2022-12-25T04:19:39.225Z,4.13
2022-12-25T04:22:25.200Z,4.93
2022-12-25T04:25:11.698Z,6.88
2022-12-25T04:27:57.696Z,4.82
2022-12-25T04:30:43.709Z,5.13
2022-12-25T04:33:29.718Z,5.65
2022-12-25T04:36:09.894Z,5.20
2022-12-25T04:38:38.324Z,5.07
2022-12-25T04:41:06.072Z,6.03
2022-12-25T04:43:33.693Z,5.13
2022-12-25T04:46:02.488Z,6.82
2022-12-25T04:48:31.470Z,4.38
2022-12-25T04:51:30.049Z,5.00
2022-12-25T04:54:00.394Z,5.18
2022-12-25T04:56:31.053Z,4.25
2022-12-25T04:58:59.050Z,5.97
2022-12-25T05:01:26.722Z,5.60
2022-12-25T05:03:54.658Z,4.05
2022-12-25T05:06:22.521Z,4.57
2022-12-25T05:08:52.966Z,5.07
2022-12-25T05:11:23.864Z,5.10
2022-12-25T05:13:51.602Z,4.70
2022-12-25T05:16:20.913Z,5.18
2022-12-25T05:18:55.191Z,4.32
2022-12-25T05:21:23.208Z,5.10
2022-12-25T05:23:54.219Z,4.90
2022-12-25T05:26:27.380Z,4.60
2022-12-25T05:28:55.779Z,4.72
2022-12-25T05:31:23.680Z,13.23
2022-12-25T05:33:52.078Z,5.43
2022-12-25T05:36:20.113Z,7.95
2022-12-25T05:38:51.214Z,5.65
2022-12-25T05:41:21.564Z,4.70
2022-12-25T05:46:17.008Z,4.25
2022-12-25T05:48:44.956Z,3.33
2022-12-25T05:51:17.176Z,4.43
2022-12-25T05:53:45.590Z,4.63
2022-12-25T05:56:13.320Z,4.75
2022-12-25T05:58:41.267Z,3.95
2022-12-25T06:01:22.296Z,4.80
2022-12-25T06:03:50.127Z,5.20
2022-12-25T06:06:17.767Z,5.78
2022-12-25T06:08:50.808Z,3.88
2022-12-25T06:11:18.487Z,4.03
2022-12-25T06:13:52.443Z,4.80
2022-12-25T06:16:20.202Z,4.50
2022-12-25T06:18:50.127Z,4.72
2022-12-25T06:21:17.817Z,4.88
2022-12-25T06:23:45.732Z,4.78
2022-12-25T06:26:16.863Z,5.47
2022-12-25T06:28:44.454Z,7.47
2022-12-25T06:31:15.101Z,6.05
2022-12-25T06:33:44.674Z,5.38
2022-12-25T06:36:16.215Z,4.93
2022-12-25T06:38:43.910Z,6.07
2022-12-25T06:41:17.163Z,6.90
2022-12-25T06:43:45.214Z,9.77
2022-12-25T06:46:15.589Z,5.43
2022-12-25T06:48:49.498Z,7.10
2022-12-25T06:51:20.355Z,7.95
2022-12-25T06:53:48.682Z,7.90
2022-12-25T06:56:18.775Z,6.97
2022-12-25T06:58:50.644Z,6.25
2022-12-25T07:01:20.637Z,9.23
2022-12-25T07:03:50.562Z,7.72
2022-12-25T07:06:18.263Z,8.52
2022-12-25T07:08:48.417Z,6.63
2022-12-25T07:11:16.259Z,6.47
2022-12-25T07:13:43.961Z,5.80
2022-12-25T07:16:12.595Z,6.90
2022-12-25T07:18:40.420Z,6.47
2022-12-25T07:21:13.337Z,7.47
2022-12-25T07:23:41.039Z,8.48
2022-12-25T07:26:10.668Z,8.18
2022-12-25T07:28:38.401Z,10.70
2022-12-25T07:31:10.417Z,8.52
2022-12-25T07:33:38.090Z,6.50
2022-12-25T07:36:06.059Z,8.38
2022-12-25T07:38:33.833Z,9.05
2022-12-25T07:41:01.768Z,9.63
2022-12-25T07:43:32.023Z,9.50
2022-12-25T07:48:30.480Z,7.85
2022-12-25T07:53:31.866Z,10.55
2022-12-25T07:56:03.924Z,11.45
2022-12-25T07:58:34.049Z,8.40
2022-12-25T08:01:08.992Z,10.57
2022-12-25T08:03:39.784Z,8.15
2022-12-25T08:06:12.022Z,8.40
2022-12-25T08:08:42.211Z,7.60
2022-12-25T08:13:42.810Z,8.52
2022-12-25T08:16:11.222Z,9.18
2022-12-25T08:18:39.270Z,8.02
2022-12-25T08:21:10.841Z,9.18
2022-12-25T08:23:40.003Z,7.90
2022-12-25T08:26:08.633Z,10.32
2022-12-25T08:28:36.876Z,8.30
2022-12-25T08:31:18.548Z,8.20
2022-12-25T08:33:47.510Z,8.68
2022-12-25T08:36:15.665Z,9.43
2022-12-25T08:38:43.523Z,9.15
2022-12-25T08:41:11.913Z,9.90
2022-12-25T08:43:39.563Z,7.85
2022-12-25T08:46:10.158Z,10.80
2022-12-25T08:51:16.558Z,7.43
2022-12-25T08:56:12.882Z,10.95
2022-12-25T08:58:43.046Z,9.60
2022-12-25T09:01:10.836Z,9.75
2022-12-25T09:03:38.564Z,9.35
2022-12-25T09:06:16.941Z,8.55
2022-12-25T09:08:50.212Z,10.25
2022-12-25T09:11:19.049Z,8.05
2022-12-25T09:13:46.576Z,10.13
2022-12-25T09:16:17.200Z,9.55
2022-12-25T09:18:45.034Z,11.98
2022-12-25T09:21:18.059Z,9.73
2022-12-25T09:23:45.603Z,14.15
2022-12-25T09:26:15.369Z,18.92
2022-12-25T09:28:50.185Z,10.88
2022-12-25T09:31:18.961Z,9.57
2022-12-25T09:33:50.612Z,11.30
2022-12-25T09:36:18.184Z,8.30
2022-12-25T09:38:47.144Z,11.07
2022-12-25T09:41:48.385Z,13.88
2022-12-25T09:47:18.161Z,8.45
2022-12-25T09:50:27.173Z,15.02
2022-12-25T09:53:09.940Z,10.60
2022-12-25T09:56:00.199Z,9.00
2022-12-25T09:58:28.005Z,7.80
2022-12-25T10:01:05.954Z,8.98
2022-12-25T10:03:54.551Z,9.48
2022-12-25T10:06:36.827Z,10.30
2022-12-25T10:09:22.633Z,12.05
2022-12-25T10:12:02.264Z,9.25
2022-12-25T10:15:01.945Z,8.70
2022-12-25T10:18:00.029Z,9.45
2022-12-25T10:20:57.949Z,10.80
2022-12-25T10:23:25.638Z,9.20
2022-12-25T10:25:55.299Z,10.77
2022-12-25T10:29:12.184Z,10.98
2022-12-25T10:31:40.363Z,10.63
2022-12-25T10:34:09.783Z,10.35
2022-12-25T10:36:40.382Z,11.45
2022-12-25T10:39:08.375Z,10.95
2022-12-25T10:41:59.344Z,10.38
2022-12-25T10:44:26.700Z,12.32
2022-12-25T10:46:58.529Z,11.52
2022-12-25T10:49:34.559Z,9.15
2022-12-25T10:52:03.976Z,10.63
2022-12-25T10:54:36.186Z,11.32
2022-12-25T10:57:18.958Z,13.48
2022-12-25T10:59:49.049Z,9.70
2022-12-25T11:02:22.677Z,10.57
2022-12-25T11:04:51.728Z,9.00
2022-12-25T11:07:26.483Z,15.20
2022-12-25T11:10:02.691Z,8.50
2022-12-25T11:12:35.555Z,10.77
2022-12-25T11:15:26.298Z,14.20
2022-12-25T11:17:59.268Z,12.32
2022-12-25T11:20:26.877Z,9.20
2022-12-25T11:22:54.317Z,10.27
2022-12-25T11:25:27.468Z,10.52
2022-12-25T11:28:04.002Z,10.32
2022-12-25T11:30:33.568Z,8.88
2022-12-25T11:33:10.339Z,8.32
2022-12-25T11:35:49.000Z,9.88
2022-12-25T11:38:16.495Z,9.73
2022-12-25T11:40:54.009Z,8.82
2022-12-25T11:43:28.309Z,7.97
2022-12-25T11:46:35.829Z,8.00
2022-12-25T11:49:08.431Z,9.13
2022-12-25T11:51:44.668Z,7.03
2022-12-25T11:54:26.641Z,6.93
2022-12-25T11:56:56.664Z,8.35
2022-12-25T11:59:31.069Z,8.57
2022-12-25T12:02:08.205Z,7.22
2022-12-25T12:04:43.166Z,6.35
2022-12-25T12:07:29.236Z,7.45
2022-12-25T12:10:16.199Z,8.10
2022-12-25T12:13:04.836Z,8.70
2022-12-25T12:15:46.415Z,7.90
2022-12-25T12:18:27.467Z,8.45
2022-12-25T12:21:18.076Z,7.45
2022-12-25T12:23:57.419Z,6.00
2022-12-25T12:26:27.063Z,5.93
2022-12-25T12:28:58.676Z,9.32
2022-12-25T12:31:37.152Z,6.80
2022-12-25T12:34:05.033Z,7.32
2022-12-25T12:36:36.859Z,7.00
2022-12-25T12:39:06.216Z,6.82
2022-12-25T12:41:46.396Z,6.45
2022-12-25T12:44:16.219Z,8.70
2022-12-25T12:47:04.633Z,13.65
2022-12-25T12:49:33.758Z,8.40
2022-12-25T12:52:24.733Z,7.63
2022-12-25T12:55:16.963Z,5.78
2022-12-25T12:57:46.626Z,5.57
2022-12-25T13:00:19.646Z,4.57
2022-12-25T13:03:15.933Z,6.32
2022-12-25T13:05:50.544Z,7.90
2022-12-25T13:08:23.919Z,5.38
2022-12-25T13:11:02.648Z,5.55
2022-12-25T13:13:40.706Z,6.45
2022-12-25T13:16:24.448Z,4.07
2022-12-25T13:18:53.535Z,6.25
2022-12-25T13:21:25.045Z,5.68
2022-12-25T13:24:10.648Z,7.00
2022-12-25T13:26:39.353Z,5.03
2022-12-25T13:29:11.443Z,6.93
2022-12-25T13:31:44.725Z,7.13
2022-12-25T13:34:41.636Z,6.97
2022-12-25T13:37:13.488Z,7.38
2022-12-25T13:39:56.422Z,6.95
2022-12-25T13:42:30.424Z,11.13
2022-12-25T13:45:26.063Z,5.40
2022-12-25T13:47:57.159Z,6.90
2022-12-25T13:50:25.735Z,5.97
2022-12-25T13:52:54.597Z,5.57
2022-12-25T13:55:26.103Z,7.53
2022-12-25T13:57:59.262Z,8.73
2022-12-25T14:00:35.672Z,4.88
2022-12-25T14:05:41.771Z,5.68
2022-12-25T14:08:21.312Z,5.90
2022-12-25T14:10:50.768Z,5.35
2022-12-25T14:13:21.104Z,6.13
2022-12-25T14:15:50.333Z,4.90
2022-12-25T14:18:19.652Z,5.45
2022-12-25T14:21:09.739Z,4.53
2022-12-25T14:23:43.886Z,5.55
2022-12-25T14:26:19.842Z,6.55
2022-12-25T14:29:01.634Z,6.20
2022-12-25T14:31:29.614Z,5.05
2022-12-25T14:34:01.030Z,5.25
2022-12-25T14:36:28.748Z,5.82
2022-12-25T14:39:06.935Z,7.03
2022-12-25T14:41:38.305Z,6.72
2022-12-25T14:44:30.062Z,4.10
2022-12-25T14:47:06.046Z,4.53
2022-12-25T14:49:33.998Z,7.38
2022-12-25T14:52:11.026Z,4.60
2022-12-25T14:54:38.687Z,7.05
2022-12-25T14:57:06.247Z,2.90
2022-12-25T14:59:33.935Z,4.28
2022-12-25T15:02:01.608Z,5.18
2022-12-25T15:04:29.888Z,5.72
2022-12-25T15:07:07.566Z,4.70
2022-12-25T15:09:37.868Z,5.45
2022-12-25T15:12:05.945Z,6.15
2022-12-25T15:14:36.738Z,5.53
2022-12-25T15:17:04.435Z,4.18
2022-12-25T15:19:38.917Z,4.68
2022-12-25T15:22:07.091Z,4.18
2022-12-25T15:24:34.817Z,5.13
2022-12-25T15:27:02.590Z,4.60
2022-12-25T15:30:07.798Z,4.88
2022-12-25T15:32:23.088Z,4.68
2022-12-25T15:34:51.306Z,3.88
2022-12-25T15:37:19.382Z,8.18
2022-12-25T15:39:47.187Z,4.30
2022-12-25T15:42:19.519Z,6.05
2022-12-25T15:44:47.344Z,4.72
2022-12-25T15:47:20.804Z,4.10
2022-12-25T15:49:49.148Z,7.45
2022-12-25T15:52:18.356Z,4.82
2022-12-25T15:54:46.181Z,4.95
2022-12-25T15:57:22.290Z,11.27
2022-12-25T15:59:49.729Z,32.38
2022-12-25T16:02:20.812Z,5.13
2022-12-25T16:04:51.246Z,3.58
2022-12-25T16:09:47.393Z,5.25
2022-12-25T16:12:14.816Z,5.68
2022-12-25T16:14:42.363Z,4.95
2022-12-25T16:17:14.923Z,4.07
2022-12-25T16:19:45.057Z,5.50
2022-12-25T16:22:20.290Z,6.70
2022-12-25T16:24:50.487Z,4.35
2022-12-25T16:27:18.126Z,4.43
2022-12-25T16:29:45.952Z,5.82
2022-12-25T16:32:14.877Z,5.07
2022-12-25T16:34:42.633Z,5.78
2022-12-25T16:37:12.705Z,4.50
2022-12-25T16:39:42.924Z,4.05
2022-12-25T16:42:10.945Z,5.25
2022-12-25T16:44:38.600Z,6.60
2022-12-25T16:47:06.466Z,4.70
2022-12-25T16:49:36.785Z,5.18
2022-12-25T16:54:32.612Z,4.72
2022-12-25T16:57:00.367Z,5.60
2022-12-25T16:59:29.727Z,3.28
2022-12-25T17:01:57.716Z,5.25
2022-12-25T17:04:25.491Z,3.60
2022-12-25T17:06:53.085Z,3.30
2022-12-25T17:09:20.860Z,4.43
2022-12-25T17:11:48.598Z,3.95
2022-12-25T17:14:16.375Z,6.70
2022-12-25T17:16:46.634Z,5.57
2022-12-25T17:21:47.666Z,5.00
2022-12-25T17:24:15.456Z,4.55
2022-12-25T17:26:43.976Z,5.38
2022-12-25T17:29:17.199Z,6.45
2022-12-25T17:31:51.724Z,4.50
2022-12-25T17:34:19.331Z,4.43
2022-12-25T17:36:47.024Z,3.22
2022-12-25T17:39:14.699Z,4.57
2022-12-25T17:41:42.407Z,3.15
2022-12-25T17:44:13.322Z,3.47
2022-12-25T17:46:41.863Z,4.72
2022-12-25T17:49:15.925Z,4.55
2022-12-25T17:51:44.447Z,4.60
2022-12-25T17:54:14.521Z,5.60
2022-12-25T17:56:42.260Z,4.20
2022-12-25T18:02:16.986Z,5.18
2022-12-25T18:04:45.048Z,4.55
2022-12-25T18:07:14.137Z,5.22
2022-12-25T18:09:41.900Z,5.72
2022-12-25T18:12:09.731Z,3.20
2022-12-25T18:14:37.749Z,4.95
2022-12-25T18:17:05.521Z,5.47
2022-12-25T18:19:35.739Z,4.45
2022-12-25T18:22:06.000Z,5.28
2022-12-25T18:27:03.521Z,4.00
2022-12-25T18:29:31.362Z,3.63
2022-12-25T18:32:01.416Z,3.63
2022-12-25T18:34:31.628Z,3.88
2022-12-25T18:37:03.687Z,6.60
2022-12-25T18:39:31.906Z,2.53
2022-12-25T18:42:18.065Z,3.55
2022-12-25T18:44:45.837Z,5.45
2022-12-25T18:47:16.093Z,6.68
2022-12-25T18:49:43.901Z,3.85
2022-12-25T18:52:48.868Z,5.22
2022-12-25T18:55:01.962Z,5.25
2022-12-25T19:00:01.395Z,5.53
2022-12-25T19:02:29.420Z,3.17
2022-12-25T19:04:59.698Z,2.85
2022-12-25T19:07:29.959Z,3.47
2022-12-25T19:12:29.469Z,5.32
2022-12-25T19:14:57.128Z,4.82
2022-12-25T19:17:31.365Z,2.65
2022-12-25T19:19:59.499Z,3.88
2022-12-25T19:22:27.321Z,4.68
2022-12-25T19:24:57.468Z,4.07
2022-12-25T19:27:25.302Z,8.98
2022-12-25T19:29:53.336Z,5.40
2022-12-25T19:32:21.029Z,4.28
2022-12-25T19:34:51.301Z,4.13
2022-12-25T19:37:19.008Z,3.03
2022-12-25T19:39:46.941Z,3.60
2022-12-25T19:42:15.516Z,3.10
2022-12-25T19:44:45.697Z,5.20
2022-12-25T19:47:13.633Z,4.00
2022-12-25T19:49:45.830Z,2.42
2022-12-25T19:52:16.513Z,5.85
2022-12-25T19:54:44.121Z,3.22
2022-12-25T19:57:11.865Z,2.92
2022-12-25T19:59:40.429Z,4.68
2022-12-25T20:02:09.249Z,4.10
2022-12-25T20:04:37.002Z,3.28
2022-12-25T20:07:04.726Z,4.07
2022-12-25T20:09:32.939Z,4.22
2022-12-25T20:12:03.149Z,2.42
2022-12-25T20:14:31.036Z,3.80
2022-12-25T20:16:58.726Z,3.38
2022-12-25T20:19:26.549Z,3.47
2022-12-25T20:21:54.823Z,3.55
2022-12-25T20:24:24.764Z,6.18
2022-12-25T20:26:58.988Z,2.70
2022-12-25T20:29:27.162Z,3.25
2022-12-25T20:31:55.020Z,3.65
2022-12-25T20:34:22.721Z,2.55
2022-12-25T20:36:51.089Z,3.45
2022-12-25T20:39:21.607Z,3.60
2022-12-25T20:41:49.229Z,3.35
2022-12-25T20:44:17.019Z,4.47
2022-12-25T20:46:47.225Z,4.70
2022-12-25T20:49:20.084Z,4.07
2022-12-25T20:51:50.268Z,3.95
2022-12-25T20:54:18.068Z,3.67
2022-12-25T20:56:49.514Z,2.45
2022-12-25T20:59:24.636Z,2.35
2022-12-25T21:01:56.174Z,2.60
2022-12-25T21:04:24.540Z,2.40
2022-12-25T21:06:52.927Z,4.55
2022-12-25T21:09:23.122Z,3.90
2022-12-25T21:11:50.921Z,4.43
2022-12-25T21:14:18.665Z,4.50
2022-12-25T21:16:46.462Z,4.53
2022-12-25T21:19:14.440Z,3.75
2022-12-25T21:21:43.733Z,3.20
2022-12-25T21:24:11.864Z,2.42
2022-12-25T21:26:44.461Z,2.83
2022-12-25T21:29:16.200Z,3.38
2022-12-25T21:32:02.468Z,3.63
2022-12-25T21:34:30.821Z,3.08
2022-12-25T21:36:58.531Z,5.03
2022-12-25T21:39:26.313Z,5.20
2022-12-25T21:41:54.146Z,3.30
2022-12-25T21:44:22.084Z,2.50
2022-12-25T21:46:50.094Z,3.78
2022-12-25T21:49:37.775Z,3.35
2022-12-25T21:52:08.519Z,3.38
2022-12-25T21:54:36.186Z,3.60
2022-12-25T21:57:04.048Z,3.67
2022-12-25T21:59:31.851Z,2.42
2022-12-25T22:02:00.824Z,3.55
2022-12-25T22:04:28.660Z,2.20
2022-12-25T22:07:14.916Z,4.57
2022-12-25T22:09:44.358Z,3.05
2022-12-25T22:12:34.289Z,4.10
2022-12-25T22:15:09.772Z,3.85
2022-12-25T22:18:00.703Z,3.30
2022-12-25T22:20:39.765Z,3.90
2022-12-25T22:23:07.955Z,3.10
2022-12-25T22:25:35.861Z,3.13
2022-12-25T22:28:03.789Z,2.67
2022-12-25T22:30:32.030Z,2.63
2022-12-25T22:32:59.711Z,3.97
2022-12-25T22:35:29.652Z,3.05
2022-12-25T22:37:57.847Z,3.60
2022-12-25T22:40:25.711Z,3.33
2022-12-25T22:42:57.523Z,3.65
2022-12-25T22:45:25.283Z,3.75
2022-12-25T22:47:53.208Z,5.13
2022-12-25T22:50:21.369Z,3.38
2022-12-25T22:52:49.154Z,5.75
2022-12-25T22:55:19.337Z,3.13
2022-12-25T22:57:47.278Z,4.10
2022-12-25T23:00:16.034Z,8.10
2022-12-25T23:02:47.070Z,3.28
2022-12-25T23:05:17.986Z,2.60
2022-12-25T23:07:45.799Z,3.15
2022-12-25T23:10:13.414Z,4.03
2022-12-25T23:12:59.974Z,2.75
2022-12-25T23:15:28.194Z,4.57
2022-12-25T23:18:14.361Z,4.95
2022-12-25T23:21:00.548Z,3.15
2022-12-25T23:23:46.775Z,3.83
2022-12-25T23:26:15.659Z,3.85
2022-12-25T23:29:04.709Z,4.50
2022-12-25T23:31:37.633Z,6.72
2022-12-25T23:34:05.834Z,5.53
2022-12-25T23:36:33.639Z,4.65
2022-12-25T23:39:08.573Z,3.67
2022-12-25T23:41:38.083Z,4.40
2022-12-25T23:44:05.851Z,4.85
2022-12-25T23:46:33.728Z,5.05
2022-12-25T23:49:01.978Z,3.33
2022-12-25T23:51:29.783Z,5.43
2022-12-25T23:53:57.503Z,4.10
2022-12-25T23:56:25.377Z,3.90
2022-12-25T23:58:55.596Z,3.40
